createdAt,value
2023-05-24T00:00:35.222Z,21.8
2023-05-24T00:20:35.468Z,21.7
2023-05-24T00:40:34.510Z,21.6
2023-05-24T01:00:35.260Z,21.5
2023-05-24T01:20:35.425Z,21.5
2023-05-24T01:40:36.172Z,21.4
2023-05-24T02:00:36.707Z,21.3
2023-05-24T02:20:38.819Z,21.3
2023-05-24T02:40:34.878Z,21.2
2023-05-24T03:00:35.356Z,21.1
2023-05-24T03:20:36.628Z,21
2023-05-24T03:40:35.613Z,21
2023-05-24T04:00:36.238Z,20.9
2023-05-24T04:20:54.527Z,20.9
2023-05-24T04:40:53.773Z,20.9
2023-05-24T05:00:53.606Z,21
2023-05-24T05:20:35.549Z,21
2023-05-24T05:40:53.117Z,21
2023-05-24T06:00:52.208Z,21
2023-05-24T06:20:55.110Z,20.9
2023-05-24T06:40:53.721Z,20.9
2023-05-24T07:01:00.058Z,20.9
2023-05-24T07:20:58.112Z,20.8
2023-05-24T07:40:52.995Z,20.8
2023-05-24T08:00:49.463Z,20.8
2023-05-24T08:20:57.872Z,20.8
2023-05-24T08:41:00.120Z,20.7
2023-05-24T09:00:53.579Z,20.7
2023-05-24T09:20:57.566Z,20.7
2023-05-24T09:40:52.927Z,20.7
2023-05-24T10:00:59.920Z,20.7
2023-05-24T10:20:54.953Z,20.7
2023-05-24T10:40:53.224Z,20.5
2023-05-24T11:00:51.248Z,20.4
2023-05-24T11:20:54.129Z,20.5
2023-05-24T11:40:52.156Z,20.5
2023-05-24T12:00:52.953Z,20.5
2023-05-24T12:20:53.634Z,20.5
2023-05-24T12:41:23.427Z,20.5
2023-05-24T13:00:52.729Z,20.5
2023-05-24T13:21:02.279Z,20.6
2023-05-24T13:40:54.022Z,20.5
2023-05-24T14:00:53.945Z,20.6
2023-05-24T14:20:53.839Z,20.6
2023-05-24T14:40:53.240Z,20.6
2023-05-24T15:00:56.378Z,20.6
2023-05-24T15:20:54.568Z,20.6
2023-05-24T15:40:56.683Z,20.7
2023-05-24T16:00:52.549Z,20.6
2023-05-24T16:20:54.174Z,20.7
2023-05-24T16:40:53.464Z,20.6
2023-05-24T17:40:57.127Z,20.4
2023-05-24T18:00:53.511Z,20.4
2023-05-24T18:20:55.963Z,20.4
2023-05-24T18:40:53.068Z,20.4
2023-05-24T19:00:59.847Z,20.4
2023-05-24T19:20:36.969Z,20.3
2023-05-24T19:40:37.851Z,20.3
2023-05-24T20:00:39.294Z,20.3
2023-05-24T20:20:34.689Z,20.2
2023-05-24T20:40:35.218Z,20.2
2023-05-24T21:00:39.568Z,20
2023-05-24T21:20:35.264Z,20.1
2023-05-24T21:40:34.883Z,20.1
2023-05-24T22:00:39.748Z,20
2023-05-24T22:20:36.378Z,19.9
2023-05-24T22:40:35.389Z,19.9
2023-05-24T23:00:35.211Z,19.8
2023-05-24T23:20:36.751Z,19.7
2023-05-24T23:40:35.242Z,19.6
